sensor_id;sensor_type;location;lat;lon;timestamp;P1;durP1;ratioP1;P2;durP2;ratioP2
22131;SDS011;11232;51.748;19.390;2024-02-16T00:00:26;46.73;;;22.10;;
22131;SDS011;11232;51.748;19.390;2024-02-16T00:02:52;46.80;;;22.90;;
22131;SDS011;11232;51.748;19.390;2024-02-16T00:05:19;43.03;;;22.73;;
22131;SDS011;11232;51.748;19.390;2024-02-16T00:07:44;48.83;;;22.87;;
22131;SDS011;11232;51.748;19.390;2024-02-16T00:10:10;43.83;;;21.90;;
22131;SDS011;11232;51.748;19.390;2024-02-16T00:12:39;48.90;;;22.77;;
22131;SDS011;11232;51.748;19.390;2024-02-16T00:15:05;49.40;;;22.93;;
22131;SDS011;11232;51.748;19.390;2024-02-16T00:17:31;52.70;;;24.00;;
22131;SDS011;11232;51.748;19.390;2024-02-16T00:19:58;48.53;;;23.60;;
22131;SDS011;11232;51.748;19.390;2024-02-16T00:22:24;46.80;;;23.87;;
22131;SDS011;11232;51.748;19.390;2024-02-16T00:24:49;50.27;;;24.30;;
22131;SDS011;11232;51.748;19.390;2024-02-16T00:27:15;52.53;;;25.23;;
22131;SDS011;11232;51.748;19.390;2024-02-16T00:29:41;52.20;;;26.27;;
22131;SDS011;11232;51.748;19.390;2024-02-16T00:32:07;53.60;;;26.30;;
22131;SDS011;11232;51.748;19.390;2024-02-16T00:34:33;48.07;;;25.17;;
22131;SDS011;11232;51.748;19.390;2024-02-16T00:37:00;56.07;;;27.00;;
22131;SDS011;11232;51.748;19.390;2024-02-16T00:39:26;54.17;;;26.50;;
22131;SDS011;11232;51.748;19.390;2024-02-16T00:41:51;50.77;;;26.50;;
22131;SDS011;11232;51.748;19.390;2024-02-16T00:44:17;52.17;;;25.97;;
22131;SDS011;11232;51.748;19.390;2024-02-16T00:46:43;53.23;;;25.70;;
22131;SDS011;11232;51.748;19.390;2024-02-16T00:49:09;53.60;;;27.00;;
22131;SDS011;11232;51.748;19.390;2024-02-16T00:51:36;53.07;;;26.20;;
22131;SDS011;11232;51.748;19.390;2024-02-16T00:54:02;56.17;;;25.93;;
22131;SDS011;11232;51.748;19.390;2024-02-16T00:56:28;55.73;;;28.37;;
22131;SDS011;11232;51.748;19.390;2024-02-16T00:58:54;54.00;;;26.77;;
22131;SDS011;11232;51.748;19.390;2024-02-16T01:01:20;56.70;;;28.00;;
22131;SDS011;11232;51.748;19.390;2024-02-16T01:03:48;52.17;;;27.47;;
22131;SDS011;11232;51.748;19.390;2024-02-16T01:06:14;54.50;;;27.70;;
22131;SDS011;11232;51.748;19.390;2024-02-16T01:08:40;63.13;;;28.27;;
22131;SDS011;11232;51.748;19.390;2024-02-16T01:11:06;56.73;;;27.50;;
22131;SDS011;11232;51.748;19.390;2024-02-16T01:13:32;60.10;;;28.33;;
22131;SDS011;11232;51.748;19.390;2024-02-16T01:15:58;62.13;;;28.67;;
22131;SDS011;11232;51.748;19.390;2024-02-16T01:18:24;55.43;;;27.83;;
22131;SDS011;11232;51.748;19.390;2024-02-16T01:20:51;51.83;;;27.00;;
22131;SDS011;11232;51.748;19.390;2024-02-16T01:23:17;54.80;;;27.83;;
22131;SDS011;11232;51.748;19.390;2024-02-16T01:25:43;55.37;;;27.63;;
22131;SDS011;11232;51.748;19.390;2024-02-16T01:28:08;57.03;;;27.23;;
22131;SDS011;11232;51.748;19.390;2024-02-16T01:30:37;53.60;;;28.50;;
22131;SDS011;11232;51.748;19.390;2024-02-16T01:33:03;57.77;;;28.20;;
22131;SDS011;11232;51.748;19.390;2024-02-16T01:35:30;55.07;;;26.60;;
22131;SDS011;11232;51.748;19.390;2024-02-16T01:37:56;53.03;;;27.10;;
22131;SDS011;11232;51.748;19.390;2024-02-16T01:40:21;51.83;;;26.53;;
22131;SDS011;11232;51.748;19.390;2024-02-16T01:42:47;57.70;;;27.83;;
22131;SDS011;11232;51.748;19.390;2024-02-16T01:45:13;50.50;;;27.10;;
22131;SDS011;11232;51.748;19.390;2024-02-16T01:47:39;63.43;;;29.60;;
22131;SDS011;11232;51.748;19.390;2024-02-16T01:50:07;59.47;;;28.90;;
22131;SDS011;11232;51.748;19.390;2024-02-16T01:52:34;55.47;;;27.10;;
22131;SDS011;11232;51.748;19.390;2024-02-16T01:55:02;51.80;;;25.27;;
22131;SDS011;11232;51.748;19.390;2024-02-16T01:57:29;53.33;;;26.60;;
22131;SDS011;11232;51.748;19.390;2024-02-16T01:59:58;60.60;;;28.93;;
22131;SDS011;11232;51.748;19.390;2024-02-16T02:02:24;54.60;;;27.10;;
22131;SDS011;11232;51.748;19.390;2024-02-16T02:04:49;55.57;;;25.67;;
22131;SDS011;11232;51.748;19.390;2024-02-16T02:07:15;53.57;;;26.90;;
22131;SDS011;11232;51.748;19.390;2024-02-16T02:09:41;56.53;;;27.03;;
22131;SDS011;11232;51.748;19.390;2024-02-16T02:12:08;59.53;;;26.63;;
22131;SDS011;11232;51.748;19.390;2024-02-16T02:14:34;62.27;;;26.37;;
22131;SDS011;11232;51.748;19.390;2024-02-16T02:17:01;61.40;;;27.30;;
22131;SDS011;11232;51.748;19.390;2024-02-16T02:19:28;53.40;;;26.53;;
22131;SDS011;11232;51.748;19.390;2024-02-16T02:21:55;61.37;;;28.17;;
22131;SDS011;11232;51.748;19.390;2024-02-16T02:24:21;52.90;;;26.63;;
22131;SDS011;11232;51.748;19.390;2024-02-16T02:26:47;51.67;;;26.33;;
22131;SDS011;11232;51.748;19.390;2024-02-16T02:29:13;53.97;;;26.40;;
22131;SDS011;11232;51.748;19.390;2024-02-16T02:31:38;59.03;;;27.63;;
22131;SDS011;11232;51.748;19.390;2024-02-16T02:34:05;59.17;;;27.00;;
22131;SDS011;11232;51.748;19.390;2024-02-16T02:36:31;54.03;;;26.60;;
22131;SDS011;11232;51.748;19.390;2024-02-16T02:38:57;55.20;;;26.23;;
22131;SDS011;11232;51.748;19.390;2024-02-16T02:41:23;55.40;;;27.20;;
22131;SDS011;11232;51.748;19.390;2024-02-16T02:43:50;57.53;;;27.83;;
22131;SDS011;11232;51.748;19.390;2024-02-16T02:46:16;57.03;;;27.53;;
22131;SDS011;11232;51.748;19.390;2024-02-16T02:48:42;56.33;;;26.57;;
22131;SDS011;11232;51.748;19.390;2024-02-16T02:51:11;61.80;;;28.23;;
22131;SDS011;11232;51.748;19.390;2024-02-16T02:53:37;58.13;;;27.10;;
22131;SDS011;11232;51.748;19.390;2024-02-16T02:56:03;55.63;;;27.03;;
22131;SDS011;11232;51.748;19.390;2024-02-16T02:58:29;54.13;;;27.00;;
22131;SDS011;11232;51.748;19.390;2024-02-16T03:00:55;56.27;;;27.53;;
22131;SDS011;11232;51.748;19.390;2024-02-16T03:03:21;64.47;;;27.13;;
22131;SDS011;11232;51.748;19.390;2024-02-16T03:05:47;59.63;;;27.70;;
22131;SDS011;11232;51.748;19.390;2024-02-16T03:08:14;56.80;;;26.37;;
22131;SDS011;11232;51.748;19.390;2024-02-16T03:10:39;59.60;;;27.47;;
22131;SDS011;11232;51.748;19.390;2024-02-16T03:13:05;59.37;;;28.90;;
22131;SDS011;11232;51.748;19.390;2024-02-16T03:15:34;55.27;;;27.33;;
22131;SDS011;11232;51.748;19.390;2024-02-16T03:18:02;56.70;;;28.70;;
22131;SDS011;11232;51.748;19.390;2024-02-16T03:20:29;64.30;;;28.63;;
22131;SDS011;11232;51.748;19.390;2024-02-16T03:22:55;58.13;;;28.20;;
22131;SDS011;11232;51.748;19.390;2024-02-16T03:25:21;54.23;;;28.40;;
22131;SDS011;11232;51.748;19.390;2024-02-16T03:27:46;56.80;;;27.67;;
22131;SDS011;11232;51.748;19.390;2024-02-16T03:30:12;53.67;;;27.73;;
22131;SDS011;11232;51.748;19.390;2024-02-16T03:32:38;60.00;;;28.77;;
22131;SDS011;11232;51.748;19.390;2024-02-16T03:35:04;58.53;;;28.63;;
22131;SDS011;11232;51.748;19.390;2024-02-16T03:37:30;56.43;;;26.77;;
22131;SDS011;11232;51.748;19.390;2024-02-16T03:39:55;64.23;;;30.10;;
22131;SDS011;11232;51.748;19.390;2024-02-16T03:42:21;59.63;;;27.93;;
22131;SDS011;11232;51.748;19.390;2024-02-16T03:44:47;62.47;;;29.37;;
22131;SDS011;11232;51.748;19.390;2024-02-16T03:47:13;61.30;;;28.77;;
22131;SDS011;11232;51.748;19.390;2024-02-16T03:49:39;63.53;;;29.20;;
22131;SDS011;11232;51.748;19.390;2024-02-16T03:52:05;64.63;;;29.83;;
22131;SDS011;11232;51.748;19.390;2024-02-16T03:54:30;62.77;;;30.80;;
22131;SDS011;11232;51.748;19.390;2024-02-16T03:56:57;63.40;;;28.70;;
22131;SDS011;11232;51.748;19.390;2024-02-16T03:59:23;59.00;;;29.43;;
22131;SDS011;11232;51.748;19.390;2024-02-16T04:01:49;58.77;;;28.63;;
22131;SDS011;11232;51.748;19.390;2024-02-16T04:04:15;63.73;;;28.30;;
22131;SDS011;11232;51.748;19.390;2024-02-16T04:06:41;62.07;;;28.83;;
22131;SDS011;11232;51.748;19.390;2024-02-16T04:09:06;62.13;;;28.20;;
22131;SDS011;11232;51.748;19.390;2024-02-16T04:11:32;63.77;;;28.70;;
22131;SDS011;11232;51.748;19.390;2024-02-16T04:13:59;58.37;;;26.77;;
22131;SDS011;11232;51.748;19.390;2024-02-16T04:16:24;57.53;;;27.53;;
22131;SDS011;11232;51.748;19.390;2024-02-16T04:18:50;57.83;;;27.57;;
22131;SDS011;11232;51.748;19.390;2024-02-16T04:21:16;60.20;;;27.33;;
22131;SDS011;11232;51.748;19.390;2024-02-16T04:23:42;60.97;;;28.33;;
22131;SDS011;11232;51.748;19.390;2024-02-16T04:26:09;58.60;;;28.10;;
22131;SDS011;11232;51.748;19.390;2024-02-16T04:28:35;59.77;;;28.90;;
22131;SDS011;11232;51.748;19.390;2024-02-16T04:31:01;60.20;;;27.57;;
22131;SDS011;11232;51.748;19.390;2024-02-16T04:33:26;57.80;;;27.10;;
22131;SDS011;11232;51.748;19.390;2024-02-16T04:35:52;53.20;;;27.50;;
22131;SDS011;11232;51.748;19.390;2024-02-16T04:38:18;55.93;;;27.00;;
22131;SDS011;11232;51.748;19.390;2024-02-16T04:40:44;62.70;;;27.93;;
22131;SDS011;11232;51.748;19.390;2024-02-16T04:43:10;59.83;;;27.77;;
22131;SDS011;11232;51.748;19.390;2024-02-16T04:45:36;60.50;;;27.97;;
22131;SDS011;11232;51.748;19.390;2024-02-16T04:48:02;59.43;;;27.53;;
22131;SDS011;11232;51.748;19.390;2024-02-16T04:50:31;61.90;;;27.87;;
22131;SDS011;11232;51.748;19.390;2024-02-16T04:52:58;65.07;;;28.80;;
22131;SDS011;11232;51.748;19.390;2024-02-16T04:55:24;60.33;;;27.23;;
22131;SDS011;11232;51.748;19.390;2024-02-16T04:57:49;58.20;;;27.50;;
22131;SDS011;11232;51.748;19.390;2024-02-16T05:00:16;61.80;;;29.00;;
22131;SDS011;11232;51.748;19.390;2024-02-16T05:02:42;60.90;;;28.53;;
22131;SDS011;11232;51.748;19.390;2024-02-16T05:05:07;60.20;;;29.47;;
22131;SDS011;11232;51.748;19.390;2024-02-16T05:07:33;64.37;;;29.33;;
22131;SDS011;11232;51.748;19.390;2024-02-16T05:10:01;64.30;;;28.67;;
22131;SDS011;11232;51.748;19.390;2024-02-16T05:12:27;61.83;;;29.33;;
22131;SDS011;11232;51.748;19.390;2024-02-16T05:14:53;58.17;;;28.63;;
22131;SDS011;11232;51.748;19.390;2024-02-16T05:17:18;64.40;;;29.73;;
22131;SDS011;11232;51.748;19.390;2024-02-16T05:19:47;68.80;;;30.87;;
22131;SDS011;11232;51.748;19.390;2024-02-16T05:22:13;65.60;;;29.17;;
22131;SDS011;11232;51.748;19.390;2024-02-16T05:24:40;60.40;;;29.67;;
22131;SDS011;11232;51.748;19.390;2024-02-16T05:27:05;67.53;;;30.30;;
22131;SDS011;11232;51.748;19.390;2024-02-16T05:29:31;63.53;;;30.80;;
22131;SDS011;11232;51.748;19.390;2024-02-16T05:31:57;65.63;;;30.03;;
22131;SDS011;11232;51.748;19.390;2024-02-16T05:34:22;65.50;;;29.37;;
22131;SDS011;11232;51.748;19.390;2024-02-16T05:36:49;68.40;;;30.37;;
22131;SDS011;11232;51.748;19.390;2024-02-16T05:39:15;64.83;;;30.40;;
22131;SDS011;11232;51.748;19.390;2024-02-16T05:41:52;61.27;;;30.03;;
22131;SDS011;11232;51.748;19.390;2024-02-16T05:44:18;65.07;;;29.33;;
22131;SDS011;11232;51.748;19.390;2024-02-16T05:46:45;64.63;;;30.40;;
22131;SDS011;11232;51.748;19.390;2024-02-16T05:49:11;57.70;;;30.17;;
22131;SDS011;11232;51.748;19.390;2024-02-16T05:51:37;65.00;;;29.63;;
22131;SDS011;11232;51.748;19.390;2024-02-16T05:54:06;60.57;;;29.23;;
22131;SDS011;11232;51.748;19.390;2024-02-16T05:56:33;62.73;;;31.00;;
22131;SDS011;11232;51.748;19.390;2024-02-16T05:59:02;67.57;;;32.03;;
22131;SDS011;11232;51.748;19.390;2024-02-16T06:01:31;64.07;;;29.97;;
22131;SDS011;11232;51.748;19.390;2024-02-16T06:03:57;64.03;;;30.17;;
22131;SDS011;11232;51.748;19.390;2024-02-16T06:06:22;61.47;;;30.63;;
22131;SDS011;11232;51.748;19.390;2024-02-16T06:08:48;62.30;;;30.27;;
22131;SDS011;11232;51.748;19.390;2024-02-16T06:11:14;63.10;;;32.07;;
22131;SDS011;11232;51.748;19.390;2024-02-16T06:13:40;63.83;;;30.77;;
22131;SDS011;11232;51.748;19.390;2024-02-16T06:16:06;65.03;;;31.57;;
22131;SDS011;11232;51.748;19.390;2024-02-16T06:18:35;67.50;;;31.63;;
22131;SDS011;11232;51.748;19.390;2024-02-16T06:21:01;63.33;;;32.03;;
22131;SDS011;11232;51.748;19.390;2024-02-16T06:23:27;64.53;;;30.37;;
22131;SDS011;11232;51.748;19.390;2024-02-16T06:25:52;66.77;;;31.73;;
22131;SDS011;11232;51.748;19.390;2024-02-16T06:28:18;63.10;;;30.47;;
22131;SDS011;11232;51.748;19.390;2024-02-16T06:30:44;67.13;;;31.67;;
22131;SDS011;11232;51.748;19.390;2024-02-16T06:33:09;69.10;;;31.77;;
22131;SDS011;11232;51.748;19.390;2024-02-16T06:35:35;59.17;;;31.53;;
22131;SDS011;11232;51.748;19.390;2024-02-16T06:38:01;69.97;;;32.60;;
22131;SDS011;11232;51.748;19.390;2024-02-16T06:40:26;59.57;;;29.03;;
22131;SDS011;11232;51.748;19.390;2024-02-16T06:42:52;61.17;;;29.70;;
22131;SDS011;11232;51.748;19.390;2024-02-16T06:45:18;59.07;;;28.73;;
22131;SDS011;11232;51.748;19.390;2024-02-16T06:47:45;55.17;;;28.63;;
22131;SDS011;11232;51.748;19.390;2024-02-16T06:50:10;57.30;;;28.27;;
22131;SDS011;11232;51.748;19.390;2024-02-16T06:52:36;59.80;;;29.10;;
22131;SDS011;11232;51.748;19.390;2024-02-16T06:55:02;54.27;;;28.50;;
22131;SDS011;11232;51.748;19.390;2024-02-16T06:57:28;63.37;;;27.13;;
22131;SDS011;11232;51.748;19.390;2024-02-16T06:59:54;50.00;;;26.67;;
22131;SDS011;11232;51.748;19.390;2024-02-16T07:02:22;54.57;;;25.57;;
22131;SDS011;11232;51.748;19.390;2024-02-16T07:04:47;53.10;;;26.00;;
22131;SDS011;11232;51.748;19.390;2024-02-16T07:07:13;52.37;;;25.50;;
22131;SDS011;11232;51.748;19.390;2024-02-16T07:09:39;54.97;;;25.77;;
22131;SDS011;11232;51.748;19.390;2024-02-16T07:12:05;54.67;;;24.77;;
22131;SDS011;11232;51.748;19.390;2024-02-16T07:14:31;52.07;;;26.20;;
22131;SDS011;11232;51.748;19.390;2024-02-16T07:16:57;56.07;;;27.90;;
22131;SDS011;11232;51.748;19.390;2024-02-16T07:19:23;55.33;;;27.27;;
22131;SDS011;11232;51.748;19.390;2024-02-16T07:21:50;51.17;;;26.23;;
22131;SDS011;11232;51.748;19.390;2024-02-16T07:24:16;54.93;;;28.20;;
22131;SDS011;11232;51.748;19.390;2024-02-16T07:26:43;51.67;;;27.37;;
22131;SDS011;11232;51.748;19.390;2024-02-16T07:29:09;58.17;;;27.63;;
22131;SDS011;11232;51.748;19.390;2024-02-16T07:31:35;57.43;;;29.07;;
22131;SDS011;11232;51.748;19.390;2024-02-16T07:34:01;54.17;;;27.53;;
22131;SDS011;11232;51.748;19.390;2024-02-16T07:36:28;54.43;;;28.10;;
22131;SDS011;11232;51.748;19.390;2024-02-16T07:38:54;53.67;;;26.83;;
22131;SDS011;11232;51.748;19.390;2024-02-16T07:41:20;57.33;;;28.53;;
22131;SDS011;11232;51.748;19.390;2024-02-16T07:43:45;61.60;;;28.60;;
22131;SDS011;11232;51.748;19.390;2024-02-16T07:46:11;57.73;;;29.23;;
22131;SDS011;11232;51.748;19.390;2024-02-16T07:48:37;63.43;;;31.00;;
22131;SDS011;11232;51.748;19.390;2024-02-16T07:51:03;61.23;;;28.27;;
22131;SDS011;11232;51.748;19.390;2024-02-16T07:53:29;53.80;;;28.57;;
22131;SDS011;11232;51.748;19.390;2024-02-16T07:55:55;57.80;;;27.57;;
22131;SDS011;11232;51.748;19.390;2024-02-16T07:58:22;58.13;;;29.37;;
22131;SDS011;11232;51.748;19.390;2024-02-16T08:00:47;56.57;;;29.10;;
22131;SDS011;11232;51.748;19.390;2024-02-16T08:03:13;56.33;;;28.90;;
22131;SDS011;11232;51.748;19.390;2024-02-16T08:05:38;58.03;;;28.43;;
22131;SDS011;11232;51.748;19.390;2024-02-16T08:08:04;55.37;;;29.13;;
22131;SDS011;11232;51.748;19.390;2024-02-16T08:10:33;57.57;;;29.20;;
22131;SDS011;11232;51.748;19.390;2024-02-16T08:13:00;59.27;;;26.83;;
22131;SDS011;11232;51.748;19.390;2024-02-16T08:15:26;45.10;;;25.07;;
22131;SDS011;11232;51.748;19.390;2024-02-16T08:17:51;50.03;;;24.67;;
22131;SDS011;11232;51.748;19.390;2024-02-16T08:20:17;45.23;;;25.77;;
22131;SDS011;11232;51.748;19.390;2024-02-16T08:22:43;51.90;;;27.00;;
22131;SDS011;11232;51.748;19.390;2024-02-16T08:25:09;43.55;;;23.98;;
22131;SDS011;11232;51.748;19.390;2024-02-16T08:27:34;44.88;;;25.17;;
22131;SDS011;11232;51.748;19.390;2024-02-16T08:30:00;43.13;;;25.88;;
22131;SDS011;11232;51.748;19.390;2024-02-16T08:32:27;44.85;;;24.83;;
22131;SDS011;11232;51.748;19.390;2024-02-16T08:34:53;45.45;;;26.27;;
22131;SDS011;11232;51.748;19.390;2024-02-16T08:37:21;42.60;;;25.90;;
22131;SDS011;11232;51.748;19.390;2024-02-16T08:39:46;43.20;;;25.88;;
22131;SDS011;11232;51.748;19.390;2024-02-16T08:42:12;40.50;;;26.15;;
22131;SDS011;11232;51.748;19.390;2024-02-16T08:44:38;40.53;;;25.08;;
22131;SDS011;11232;51.748;19.390;2024-02-16T08:47:05;38.15;;;24.67;;
22131;SDS011;11232;51.748;19.390;2024-02-16T08:49:32;37.75;;;24.17;;
22131;SDS011;11232;51.748;19.390;2024-02-16T08:51:58;40.33;;;23.88;;
22131;SDS011;11232;51.748;19.390;2024-02-16T08:54:24;38.30;;;23.80;;
22131;SDS011;11232;51.748;19.390;2024-02-16T08:56:50;36.17;;;24.77;;
22131;SDS011;11232;51.748;19.390;2024-02-16T08:59:18;35.55;;;21.90;;
22131;SDS011;11232;51.748;19.390;2024-02-16T09:01:43;29.98;;;20.50;;
22131;SDS011;11232;51.748;19.390;2024-02-16T09:04:09;30.13;;;19.88;;
22131;SDS011;11232;51.748;19.390;2024-02-16T09:06:35;30.63;;;19.33;;
22131;SDS011;11232;51.748;19.390;2024-02-16T09:09:00;29.50;;;20.15;;
22131;SDS011;11232;51.748;19.390;2024-02-16T09:11:27;28.20;;;18.42;;
22131;SDS011;11232;51.748;19.390;2024-02-16T09:13:55;29.17;;;17.70;;
22131;SDS011;11232;51.748;19.390;2024-02-16T09:16:21;29.52;;;18.23;;
22131;SDS011;11232;51.748;19.390;2024-02-16T09:18:47;26.63;;;17.98;;
22131;SDS011;11232;51.748;19.390;2024-02-16T09:21:15;22.85;;;15.60;;
22131;SDS011;11232;51.748;19.390;2024-02-16T09:23:41;23.83;;;15.20;;
22131;SDS011;11232;51.748;19.390;2024-02-16T09:26:07;20.98;;;13.23;;
22131;SDS011;11232;51.748;19.390;2024-02-16T09:28:38;17.85;;;13.07;;
22131;SDS011;11232;51.748;19.390;2024-02-16T09:31:05;18.35;;;12.13;;
22131;SDS011;11232;51.748;19.390;2024-02-16T09:33:32;27.85;;;11.80;;
22131;SDS011;11232;51.748;19.390;2024-02-16T09:35:58;17.10;;;11.73;;
22131;SDS011;11232;51.748;19.390;2024-02-16T09:38:23;15.90;;;10.88;;
22131;SDS011;11232;51.748;19.390;2024-02-16T09:40:49;17.33;;;10.30;;
22131;SDS011;11232;51.748;19.390;2024-02-16T09:43:25;15.02;;;9.60;;
22131;SDS011;11232;51.748;19.390;2024-02-16T09:45:55;14.88;;;10.43;;
22131;SDS011;11232;51.748;19.390;2024-02-16T09:48:22;13.52;;;9.43;;
22131;SDS011;11232;51.748;19.390;2024-02-16T09:50:51;15.65;;;9.45;;
22131;SDS011;11232;51.748;19.390;2024-02-16T09:53:19;13.23;;;8.70;;
22131;SDS011;11232;51.748;19.390;2024-02-16T09:55:49;16.45;;;9.63;;
22131;SDS011;11232;51.748;19.390;2024-02-16T09:58:16;14.07;;;9.52;;
22131;SDS011;11232;51.748;19.390;2024-02-16T10:00:50;14.05;;;9.55;;
22131;SDS011;11232;51.748;19.390;2024-02-16T10:06:07;14.40;;;9.98;;
22131;SDS011;11232;51.748;19.390;2024-02-16T10:08:34;21.67;;;10.70;;
22131;SDS011;11232;51.748;19.390;2024-02-16T10:11:13;15.13;;;9.82;;
22131;SDS011;11232;51.748;19.390;2024-02-16T10:13:39;18.60;;;10.63;;
22131;SDS011;11232;51.748;19.390;2024-02-16T10:16:09;17.10;;;10.45;;
22131;SDS011;11232;51.748;19.390;2024-02-16T10:18:36;17.67;;;10.70;;
22131;SDS011;11232;51.748;19.390;2024-02-16T10:21:03;16.70;;;10.43;;
22131;SDS011;11232;51.748;19.390;2024-02-16T10:23:29;15.98;;;10.70;;
22131;SDS011;11232;51.748;19.390;2024-02-16T10:25:55;13.85;;;10.00;;
22131;SDS011;11232;51.748;19.390;2024-02-16T10:28:22;19.58;;;11.32;;
22131;SDS011;11232;51.748;19.390;2024-02-16T10:30:52;18.05;;;11.40;;
22131;SDS011;11232;51.748;19.390;2024-02-16T10:33:28;17.23;;;10.88;;
22131;SDS011;11232;51.748;19.390;2024-02-16T10:35:55;16.27;;;10.85;;
22131;SDS011;11232;51.748;19.390;2024-02-16T10:38:25;19.85;;;11.75;;
22131;SDS011;11232;51.748;19.390;2024-02-16T10:40:52;17.17;;;10.95;;
22131;SDS011;11232;51.748;19.390;2024-02-16T10:43:19;18.02;;;10.65;;
22131;SDS011;11232;51.748;19.390;2024-02-16T10:45:46;20.33;;;11.27;;
22131;SDS011;11232;51.748;19.390;2024-02-16T10:48:17;17.67;;;11.52;;
22131;SDS011;11232;51.748;19.390;2024-02-16T10:50:43;22.73;;;11.75;;
22131;SDS011;11232;51.748;19.390;2024-02-16T10:53:21;15.88;;;11.55;;
22131;SDS011;11232;51.748;19.390;2024-02-16T10:55:50;17.05;;;11.50;;
22131;SDS011;11232;51.748;19.390;2024-02-16T10:58:19;17.25;;;11.07;;
22131;SDS011;11232;51.748;19.390;2024-02-16T11:00:51;18.08;;;11.80;;
22131;SDS011;11232;51.748;19.390;2024-02-16T11:03:21;19.23;;;12.40;;
22131;SDS011;11232;51.748;19.390;2024-02-16T11:05:51;20.00;;;11.65;;
22131;SDS011;11232;51.748;19.390;2024-02-16T11:08:18;18.60;;;12.27;;
22131;SDS011;11232;51.748;19.390;2024-02-16T11:10:57;17.27;;;11.52;;
22131;SDS011;11232;51.748;19.390;2024-02-16T11:13:24;18.08;;;11.85;;
22131;SDS011;11232;51.748;19.390;2024-02-16T11:15:58;19.10;;;11.82;;
22131;SDS011;11232;51.748;19.390;2024-02-16T11:18:25;21.00;;;12.35;;
22131;SDS011;11232;51.748;19.390;2024-02-16T11:20:51;19.38;;;11.48;;
22131;SDS011;11232;51.748;19.390;2024-02-16T11:23:24;17.08;;;10.95;;
22131;SDS011;11232;51.748;19.390;2024-02-16T11:25:54;16.63;;;10.95;;
22131;SDS011;11232;51.748;19.390;2024-02-16T11:28:25;19.42;;;12.13;;
22131;SDS011;11232;51.748;19.390;2024-02-16T11:30:52;18.77;;;11.68;;
22131;SDS011;11232;51.748;19.390;2024-02-16T11:33:17;19.38;;;11.07;;
22131;SDS011;11232;51.748;19.390;2024-02-16T11:35:52;15.07;;;9.98;;
22131;SDS011;11232;51.748;19.390;2024-02-16T11:38:30;18.65;;;10.70;;
22131;SDS011;11232;51.748;19.390;2024-02-16T11:40:58;18.25;;;10.68;;
22131;SDS011;11232;51.748;19.390;2024-02-16T11:43:26;16.30;;;10.27;;
22131;SDS011;11232;51.748;19.390;2024-02-16T11:45:52;15.43;;;10.05;;
22131;SDS011;11232;51.748;19.390;2024-02-16T11:48:19;17.77;;;10.30;;
22131;SDS011;11232;51.748;19.390;2024-02-16T11:50:46;17.45;;;10.05;;
22131;SDS011;11232;51.748;19.390;2024-02-16T11:53:16;13.68;;;8.90;;
22131;SDS011;11232;51.748;19.390;2024-02-16T11:55:48;11.68;;;6.88;;
22131;SDS011;11232;51.748;19.390;2024-02-16T11:58:17;12.77;;;6.63;;
22131;SDS011;11232;51.748;19.390;2024-02-16T12:00:47;14.68;;;6.90;;
22131;SDS011;11232;51.748;19.390;2024-02-16T12:03:20;10.38;;;6.18;;
22131;SDS011;11232;51.748;19.390;2024-02-16T12:05:53;12.82;;;6.72;;
22131;SDS011;11232;51.748;19.390;2024-02-16T12:08:20;12.05;;;6.75;;
22131;SDS011;11232;51.748;19.390;2024-02-16T12:10:47;12.25;;;6.55;;
22131;SDS011;11232;51.748;19.390;2024-02-16T12:13:16;14.82;;;6.70;;
22131;SDS011;11232;51.748;19.390;2024-02-16T12:15:43;11.20;;;6.93;;
22131;SDS011;11232;51.748;19.390;2024-02-16T12:18:19;11.93;;;6.70;;
22131;SDS011;11232;51.748;19.390;2024-02-16T12:21:00;11.82;;;6.30;;
22131;SDS011;11232;51.748;19.390;2024-02-16T12:23:28;12.15;;;6.68;;
22131;SDS011;11232;51.748;19.390;2024-02-16T12:26:00;11.50;;;6.68;;
22131;SDS011;11232;51.748;19.390;2024-02-16T12:28:27;10.18;;;6.43;;
22131;SDS011;11232;51.748;19.390;2024-02-16T12:31:01;10.90;;;6.20;;
22131;SDS011;11232;51.748;19.390;2024-02-16T12:33:26;11.93;;;6.53;;
22131;SDS011;11232;51.748;19.390;2024-02-16T12:35:52;10.93;;;5.90;;
22131;SDS011;11232;51.748;19.390;2024-02-16T12:38:19;10.45;;;6.05;;
22131;SDS011;11232;51.748;19.390;2024-02-16T12:40:45;11.57;;;6.22;;
22131;SDS011;11232;51.748;19.390;2024-02-16T12:43:11;12.27;;;6.30;;
22131;SDS011;11232;51.748;19.390;2024-02-16T12:45:38;13.75;;;6.15;;
22131;SDS011;11232;51.748;19.390;2024-02-16T12:48:04;11.95;;;6.00;;
22131;SDS011;11232;51.748;19.390;2024-02-16T12:50:31;10.40;;;5.78;;
22131;SDS011;11232;51.748;19.390;2024-02-16T12:52:57;11.85;;;6.15;;
22131;SDS011;11232;51.748;19.390;2024-02-16T12:55:26;13.50;;;6.43;;
22131;SDS011;11232;51.748;19.390;2024-02-16T12:57:53;9.85;;;5.85;;
22131;SDS011;11232;51.748;19.390;2024-02-16T13:00:18;9.70;;;5.72;;
22131;SDS011;11232;51.748;19.390;2024-02-16T13:02:44;11.85;;;5.15;;
22131;SDS011;11232;51.748;19.390;2024-02-16T13:05:10;9.07;;;4.53;;
22131;SDS011;11232;51.748;19.390;2024-02-16T13:07:38;11.73;;;5.25;;
22131;SDS011;11232;51.748;19.390;2024-02-16T13:10:06;10.25;;;5.22;;
22131;SDS011;11232;51.748;19.390;2024-02-16T13:12:33;12.88;;;4.95;;
22131;SDS011;11232;51.748;19.390;2024-02-16T13:14:58;9.90;;;4.97;;
22131;SDS011;11232;51.748;19.390;2024-02-16T13:17:24;8.80;;;4.55;;
22131;SDS011;11232;51.748;19.390;2024-02-16T13:19:51;8.32;;;4.47;;
22131;SDS011;11232;51.748;19.390;2024-02-16T13:22:17;7.50;;;4.20;;
22131;SDS011;11232;51.748;19.390;2024-02-16T13:24:43;13.73;;;6.43;;
22131;SDS011;11232;51.748;19.390;2024-02-16T13:27:09;6.82;;;4.18;;
22131;SDS011;11232;51.748;19.390;2024-02-16T13:29:34;6.68;;;3.83;;
22131;SDS011;11232;51.748;19.390;2024-02-16T13:32:00;8.07;;;4.28;;
22131;SDS011;11232;51.748;19.390;2024-02-16T13:34:26;7.65;;;3.67;;
22131;SDS011;11232;51.748;19.390;2024-02-16T13:36:52;7.38;;;3.78;;
22131;SDS011;11232;51.748;19.390;2024-02-16T13:39:18;9.55;;;4.07;;
22131;SDS011;11232;51.748;19.390;2024-02-16T13:41:44;6.65;;;3.72;;
22131;SDS011;11232;51.748;19.390;2024-02-16T13:44:12;8.25;;;4.10;;
22131;SDS011;11232;51.748;19.390;2024-02-16T13:46:38;6.85;;;3.72;;
22131;SDS011;11232;51.748;19.390;2024-02-16T13:49:03;7.65;;;3.85;;
22131;SDS011;11232;51.748;19.390;2024-02-16T13:51:29;6.10;;;3.70;;
22131;SDS011;11232;51.748;19.390;2024-02-16T13:53:55;7.75;;;3.50;;
22131;SDS011;11232;51.748;19.390;2024-02-16T13:56:20;12.65;;;3.95;;
22131;SDS011;11232;51.748;19.390;2024-02-16T13:58:46;6.97;;;3.72;;
22131;SDS011;11232;51.748;19.390;2024-02-16T14:01:12;7.60;;;4.03;;
22131;SDS011;11232;51.748;19.390;2024-02-16T14:03:38;6.88;;;3.60;;
22131;SDS011;11232;51.748;19.390;2024-02-16T14:06:05;7.55;;;3.50;;
22131;SDS011;11232;51.748;19.390;2024-02-16T14:08:32;7.40;;;3.50;;
22131;SDS011;11232;51.748;19.390;2024-02-16T14:10:58;9.88;;;3.80;;